sensor_id;sensor_type;location;lat;lon;timestamp;pressure;altitude;pressure_sealevel;temperature;humidity
51239;BME280;38154;47.548;18.828;2023-08-12T00:02:14;99421.25;;;13.54;100.00
51239;BME280;38154;47.548;18.828;2023-08-12T00:04:40;99426.47;;;13.56;100.00
51239;BME280;38154;47.548;18.828;2023-08-12T00:07:05;99427.34;;;13.52;100.00
51239;BME280;38154;47.548;18.828;2023-08-12T00:09:31;99423.00;;;13.51;100.00
51239;BME280;38154;47.548;18.828;2023-08-12T00:11:57;99424.72;;;13.49;100.00
51239;BME280;38154;47.548;18.828;2023-08-12T00:14:23;99428.22;;;13.48;100.00
51239;BME280;38154;47.548;18.828;2023-08-12T00:16:49;99420.38;;;13.46;100.00
51239;BME280;38154;47.548;18.828;2023-08-12T00:19:15;99419.50;;;13.43;100.00
51239;BME280;38154;47.548;18.828;2023-08-12T00:21:41;99411.63;;;13.43;100.00
51239;BME280;38154;47.548;18.828;2023-08-12T00:24:06;99422.13;;;13.43;100.00
51239;BME280;38154;47.548;18.828;2023-08-12T00:26:32;99410.75;;;13.45;100.00
51239;BME280;38154;47.548;18.828;2023-08-12T00:28:58;99421.22;;;13.47;100.00
51239;BME280;38154;47.548;18.828;2023-08-12T00:31:24;99416.00;;;13.48;100.00
51239;BME280;38154;47.548;18.828;2023-08-12T00:33:50;99423.00;;;13.49;100.00
51239;BME280;38154;47.548;18.828;2023-08-12T00:36:16;99415.13;;;13.51;100.00
51239;BME280;38154;47.548;18.828;2023-08-12T00:38:42;99416.88;;;13.52;100.00
51239;BME280;38154;47.548;18.828;2023-08-12T00:41:07;99409.00;;;13.53;100.00
51239;BME280;38154;47.548;18.828;2023-08-12T00:43:33;99410.75;;;13.50;100.00
51239;BME280;38154;47.548;18.828;2023-08-12T00:45:59;99412.50;;;13.49;100.00
51239;BME280;38154;47.548;18.828;2023-08-12T00:48:25;99414.28;;;13.47;100.00
51239;BME280;38154;47.548;18.828;2023-08-12T00:50:52;99417.75;;;13.46;100.00
51239;BME280;38154;47.548;18.828;2023-08-12T00:53:18;99408.13;;;13.47;100.00
51239;BME280;38154;47.548;18.828;2023-08-12T00:55:44;99406.41;;;13.43;100.00
51239;BME280;38154;47.548;18.828;2023-08-12T00:58:10;99397.69;;;13.39;100.00
51239;BME280;38154;47.548;18.828;2023-08-12T01:00:37;99406.37;;;13.35;100.00
51239;BME280;38154;47.548;18.828;2023-08-12T01:03:03;99402.91;;;13.39;100.00
51239;BME280;38154;47.548;18.828;2023-08-12T01:05:31;99400.28;;;13.42;100.00
51239;BME280;38154;47.548;18.828;2023-08-12T01:07:57;99401.16;;;13.43;100.00
51239;BME280;38154;47.548;18.828;2023-08-12T01:10:24;99402.88;;;13.42;100.00
51239;BME280;38154;47.548;18.828;2023-08-12T01:12:59;99406.41;;;13.43;100.00
51239;BME280;38154;47.548;18.828;2023-08-12T01:15:28;99399.41;;;13.43;100.00
51239;BME280;38154;47.548;18.828;2023-08-12T01:17:55;99401.16;;;13.46;100.00
51239;BME280;38154;47.548;18.828;2023-08-12T01:20:23;99404.63;;;13.39;100.00
51239;BME280;38154;47.548;18.828;2023-08-12T01:23:07;99400.25;;;13.30;100.00
51239;BME280;38154;47.548;18.828;2023-08-12T01:25:34;99408.09;;;13.27;100.00
51239;BME280;38154;47.548;18.828;2023-08-12T01:27:59;99409.84;;;13.28;100.00
51239;BME280;38154;47.548;18.828;2023-08-12T01:30:25;99415.09;;;13.23;100.00
51239;BME280;38154;47.548;18.828;2023-08-12T01:32:56;99407.22;;;13.25;100.00
51239;BME280;38154;47.548;18.828;2023-08-12T01:35:26;99412.47;;;13.26;100.00
51239;BME280;38154;47.548;18.828;2023-08-12T01:37:57;99410.72;;;13.31;100.00
51239;BME280;38154;47.548;18.828;2023-08-12T01:40:24;99411.63;;;13.41;100.00
51239;BME280;38154;47.548;18.828;2023-08-12T01:42:50;99409.00;;;13.40;100.00
51239;BME280;38154;47.548;18.828;2023-08-12T01:45:18;99407.28;;;13.34;100.00
51239;BME280;38154;47.548;18.828;2023-08-12T01:47:44;99405.47;;;13.27;100.00
51239;BME280;38154;47.548;18.828;2023-08-12T01:50:10;99399.34;;;13.17;100.00
51239;BME280;38154;47.548;18.828;2023-08-12T01:52:36;99398.47;;;13.13;100.00
51239;BME280;38154;47.548;18.828;2023-08-12T01:55:02;99401.97;;;13.08;100.00
51239;BME280;38154;47.548;18.828;2023-08-12T01:57:28;99395.88;;;13.04;100.00
51239;BME280;38154;47.548;18.828;2023-08-12T01:59:54;99400.22;;;13.04;100.00
51239;BME280;38154;47.548;18.828;2023-08-12T02:02:20;99394.13;;;13.03;100.00
51239;BME280;38154;47.548;18.828;2023-08-12T02:04:46;99400.22;;;13.01;100.00
51239;BME280;38154;47.548;18.828;2023-08-12T02:07:12;99396.72;;;12.98;100.00
51239;BME280;38154;47.548;18.828;2023-08-12T02:09:38;99392.38;;;12.97;100.00
51239;BME280;38154;47.548;18.828;2023-08-12T02:12:04;99397.59;;;12.97;100.00
51239;BME280;38154;47.548;18.828;2023-08-12T02:14:30;99394.09;;;13.02;100.00
51239;BME280;38154;47.548;18.828;2023-08-12T02:16:56;99397.59;;;13.05;100.00
51239;BME280;38154;47.548;18.828;2023-08-12T02:19:22;99394.97;;;13.05;100.00
51239;BME280;38154;47.548;18.828;2023-08-12T02:21:48;99398.47;;;13.10;100.00
51239;BME280;38154;47.548;18.828;2023-08-12T02:24:14;99394.13;;;13.14;100.00
51239;BME280;38154;47.548;18.828;2023-08-12T02:26:40;99394.13;;;13.17;100.00
51239;BME280;38154;47.548;18.828;2023-08-12T02:29:05;99392.38;;;13.22;100.00
51239;BME280;38154;47.548;18.828;2023-08-12T02:31:31;99392.38;;;13.24;100.00
51239;BME280;38154;47.548;18.828;2023-08-12T02:33:57;99391.50;;;13.22;100.00
51239;BME280;38154;47.548;18.828;2023-08-12T02:36:23;99388.03;;;13.24;100.00
51239;BME280;38154;47.548;18.828;2023-08-12T02:38:50;99393.28;;;13.26;100.00
51239;BME280;38154;47.548;18.828;2023-08-12T02:41:16;99385.41;;;13.26;100.00
51239;BME280;38154;47.548;18.828;2023-08-12T02:43:42;99387.12;;;13.24;100.00
51239;BME280;38154;47.548;18.828;2023-08-12T02:46:08;99386.28;;;13.22;100.00
51239;BME280;38154;47.548;18.828;2023-08-12T02:48:35;99390.63;;;13.18;100.00
51239;BME280;38154;47.548;18.828;2023-08-12T02:51:01;99382.78;;;13.16;100.00
51239;BME280;38154;47.548;18.828;2023-08-12T02:53:27;99388.91;;;13.12;100.00
51239;BME280;38154;47.548;18.828;2023-08-12T02:55:53;99383.66;;;13.09;100.00
51239;BME280;38154;47.548;18.828;2023-08-12T02:58:19;99381.03;;;13.06;100.00
51239;BME280;38154;47.548;18.828;2023-08-12T03:00:45;99381.91;;;13.08;100.00
51239;BME280;38154;47.548;18.828;2023-08-12T03:03:11;99389.78;;;13.16;100.00
51239;BME280;38154;47.548;18.828;2023-08-12T03:05:36;99390.63;;;13.18;100.00
51239;BME280;38154;47.548;18.828;2023-08-12T03:08:03;99388.88;;;13.17;100.00
51239;BME280;38154;47.548;18.828;2023-08-12T03:10:30;99384.53;;;13.14;100.00
51239;BME280;38154;47.548;18.828;2023-08-12T03:12:56;99390.63;;;13.16;100.00
51239;BME280;38154;47.548;18.828;2023-08-12T03:15:21;99389.78;;;13.17;100.00
51239;BME280;38154;47.548;18.828;2023-08-12T03:17:47;99395.00;;;13.16;100.00
51239;BME280;38154;47.548;18.828;2023-08-12T03:20:13;99390.63;;;13.13;100.00
51239;BME280;38154;47.548;18.828;2023-08-12T03:22:39;99397.63;;;13.13;100.00
51239;BME280;38154;47.548;18.828;2023-08-12T03:25:05;99395.00;;;13.16;100.00
51239;BME280;38154;47.548;18.828;2023-08-12T03:27:31;99387.16;;;13.19;100.00
51239;BME280;38154;47.548;18.828;2023-08-12T03:29:57;99392.41;;;13.21;100.00
51239;BME280;38154;47.548;18.828;2023-08-12T03:32:24;99394.13;;;13.22;100.00
51239;BME280;38154;47.548;18.828;2023-08-12T03:34:51;99402.00;;;13.25;100.00
51239;BME280;38154;47.548;18.828;2023-08-12T03:37:17;99397.63;;;13.28;100.00
51239;BME280;38154;47.548;18.828;2023-08-12T03:39:43;99404.63;;;13.28;100.00
51239;BME280;38154;47.548;18.828;2023-08-12T03:42:09;99408.97;;;13.29;100.00
51239;BME280;38154;47.548;18.828;2023-08-12T03:44:35;99411.59;;;13.30;100.00
51239;BME280;38154;47.548;18.828;2023-08-12T03:47:01;99414.25;;;13.33;100.00
51239;BME280;38154;47.548;18.828;2023-08-12T03:49:28;99413.38;;;13.34;100.00
51239;BME280;38154;47.548;18.828;2023-08-12T03:51:54;99419.47;;;13.33;100.00
51239;BME280;38154;47.548;18.828;2023-08-12T03:54:20;99420.34;;;13.37;100.00
51239;BME280;38154;47.548;18.828;2023-08-12T03:56:46;99420.34;;;13.40;100.00
51239;BME280;38154;47.548;18.828;2023-08-12T03:59:11;99414.25;;;13.41;100.00
51239;BME280;38154;47.548;18.828;2023-08-12T04:01:37;99410.75;;;13.44;100.00
51239;BME280;38154;47.548;18.828;2023-08-12T04:04:03;99417.75;;;13.51;100.00
51239;BME280;38154;47.548;18.828;2023-08-12T04:06:29;99423.84;;;13.61;100.00
51239;BME280;38154;47.548;18.828;2023-08-12T04:08:55;99421.22;;;13.68;100.00
51239;BME280;38154;47.548;18.828;2023-08-12T04:11:21;99420.34;;;13.76;100.00
51239;BME280;38154;47.548;18.828;2023-08-12T04:13:47;99419.47;;;13.84;100.00
51239;BME280;38154;47.548;18.828;2023-08-12T04:16:13;99425.59;;;13.91;100.00
51239;BME280;38154;47.548;18.828;2023-08-12T04:18:39;99424.69;;;13.98;100.00
51239;BME280;38154;47.548;18.828;2023-08-12T04:21:05;99425.53;;;14.03;100.00
51239;BME280;38154;47.548;18.828;2023-08-12T04:23:30;99427.28;;;14.07;100.00
51239;BME280;38154;47.548;18.828;2023-08-12T04:25:56;99422.03;;;14.14;100.00
51239;BME280;38154;47.548;18.828;2023-08-12T04:28:22;99428.13;;;14.19;100.00
51239;BME280;38154;47.548;18.828;2023-08-12T04:30:48;99429.87;;;14.23;100.00
51239;BME280;38154;47.548;18.828;2023-08-12T04:33:16;99434.22;;;14.27;100.00
51239;BME280;38154;47.548;18.828;2023-08-12T04:35:42;99436.78;;;14.38;100.00
51239;BME280;38154;47.548;18.828;2023-08-12T04:38:08;99436.75;;;14.52;100.00
51239;BME280;38154;47.548;18.828;2023-08-12T04:40:38;99431.47;;;14.69;100.00
51239;BME280;38154;47.548;18.828;2023-08-12T04:43:04;99441.84;;;14.92;100.00
51239;BME280;38154;47.548;18.828;2023-08-12T04:45:30;99444.31;;;15.16;100.00
51239;BME280;38154;47.548;18.828;2023-08-12T04:47:57;99442.34;;;15.48;100.00
51239;BME280;38154;47.548;18.828;2023-08-12T04:50:23;99443.00;;;15.79;100.00
51239;BME280;38154;47.548;18.828;2023-08-12T04:52:49;99442.66;;;16.11;100.00
51239;BME280;38154;47.548;18.828;2023-08-12T04:55:15;99437.84;;;16.50;100.00
51239;BME280;38154;47.548;18.828;2023-08-12T04:57:41;99437.41;;;16.87;100.00
51239;BME280;38154;47.548;18.828;2023-08-12T05:00:07;99439.50;;;17.26;100.00
51239;BME280;38154;47.548;18.828;2023-08-12T05:02:35;99442.47;;;17.59;100.00
51239;BME280;38154;47.548;18.828;2023-08-12T05:05:01;99441.09;;;17.91;100.00
51239;BME280;38154;47.548;18.828;2023-08-12T05:07:27;99439.59;;;18.24;100.00
51239;BME280;38154;47.548;18.828;2023-08-12T05:09:53;99447.81;;;18.54;100.00
51239;BME280;38154;47.548;18.828;2023-08-12T05:12:19;99447.19;;;18.85;100.00
51239;BME280;38154;47.548;18.828;2023-08-12T05:14:45;99441.94;;;19.24;97.90
51239;BME280;38154;47.548;18.828;2023-08-12T05:17:11;99446.41;;;19.58;91.52
51239;BME280;38154;47.548;18.828;2023-08-12T05:19:37;99455.41;;;19.87;92.92
51239;BME280;38154;47.548;18.828;2023-08-12T05:22:03;99452.13;;;20.11;89.90
51239;BME280;38154;47.548;18.828;2023-08-12T05:24:29;99447.69;;;20.45;85.92
51239;BME280;38154;47.548;18.828;2023-08-12T05:26:54;99446.91;;;20.72;82.41
51239;BME280;38154;47.548;18.828;2023-08-12T05:29:20;99448.06;;;20.93;76.68
51239;BME280;38154;47.548;18.828;2023-08-12T05:31:46;99449.38;;;21.08;79.21
51239;BME280;38154;47.548;18.828;2023-08-12T05:34:12;99447.44;;;21.13;77.72
51239;BME280;38154;47.548;18.828;2023-08-12T05:36:38;99445.59;;;21.16;75.91
51239;BME280;38154;47.548;18.828;2023-08-12T05:39:04;99442.75;;;21.22;77.00
51239;BME280;38154;47.548;18.828;2023-08-12T05:41:30;99440.00;;;21.25;76.87
51239;BME280;38154;47.548;18.828;2023-08-12T05:43:55;99446.44;;;21.44;77.89
51239;BME280;38154;47.548;18.828;2023-08-12T05:46:21;99442.41;;;21.61;77.00
51239;BME280;38154;47.548;18.828;2023-08-12T05:48:47;99445.22;;;21.83;74.74
51239;BME280;38154;47.548;18.828;2023-08-12T05:51:13;99445.41;;;22.29;72.30
51239;BME280;38154;47.548;18.828;2023-08-12T05:53:39;99448.69;;;22.84;69.38
51239;BME280;38154;47.548;18.828;2023-08-12T05:56:05;99443.25;;;23.11;67.14
51239;BME280;38154;47.548;18.828;2023-08-12T05:58:31;99447.34;;;23.20;67.01
51239;BME280;38154;47.548;18.828;2023-08-12T06:00:56;99441.16;;;23.19;66.94
51239;BME280;38154;47.548;18.828;2023-08-12T06:03:22;99441.47;;;23.11;65.64
51239;BME280;38154;47.548;18.828;2023-08-12T06:05:48;99437.13;;;23.09;66.69
51239;BME280;38154;47.548;18.828;2023-08-12T06:08:15;99439.84;;;23.07;65.98
51239;BME280;38154;47.548;18.828;2023-08-12T06:10:41;99441.19;;;23.18;67.48
51239;BME280;38154;47.548;18.828;2023-08-12T06:13:07;99448.53;;;23.57;63.36
51239;BME280;38154;47.548;18.828;2023-08-12T06:15:33;99439.72;;;24.18;60.63
51239;BME280;38154;47.548;18.828;2023-08-12T06:18:00;99436.91;;;24.62;60.01
51239;BME280;38154;47.548;18.828;2023-08-12T06:20:26;99448.28;;;25.04;56.77
51239;BME280;38154;47.548;18.828;2023-08-12T06:22:52;99447.09;;;25.30;55.93
51239;BME280;38154;47.548;18.828;2023-08-12T06:25:19;99451.66;;;25.99;53.53
51239;BME280;38154;47.548;18.828;2023-08-12T06:27:45;99451.09;;;26.78;50.69
51239;BME280;38154;47.548;18.828;2023-08-12T06:30:12;99450.47;;;27.38;50.63
51239;BME280;38154;47.548;18.828;2023-08-12T06:32:38;99460.28;;;29.17;45.00
51239;BME280;38154;47.548;18.828;2023-08-12T06:35:03;99465.50;;;32.01;37.50
51239;BME280;38154;47.548;18.828;2023-08-12T06:37:29;99478.50;;;34.21;31.58
51239;BME280;38154;47.548;18.828;2023-08-12T06:39:55;99469.41;;;33.89;32.08
51239;BME280;38154;47.548;18.828;2023-08-12T06:42:22;99471.06;;;33.80;31.80
51239;BME280;38154;47.548;18.828;2023-08-12T06:44:54;99469.25;;;34.54;31.38
51239;BME280;38154;47.548;18.828;2023-08-12T06:47:20;99475.97;;;35.81;29.57
51239;BME280;38154;47.548;18.828;2023-08-12T06:49:46;99475.28;;;36.66;28.81
51239;BME280;38154;47.548;18.828;2023-08-12T06:52:12;99475.47;;;37.65;26.34
51239;BME280;38154;47.548;18.828;2023-08-12T06:54:38;99483.03;;;38.52;24.89
51239;BME280;38154;47.548;18.828;2023-08-12T06:57:04;99483.56;;;39.59;23.93
51239;BME280;38154;47.548;18.828;2023-08-12T06:59:30;99481.69;;;39.67;23.75
51239;BME280;38154;47.548;18.828;2023-08-12T07:01:56;99472.16;;;40.29;23.02
51239;BME280;38154;47.548;18.828;2023-08-12T07:04:22;99479.84;;;40.42;22.72
51239;BME280;38154;47.548;18.828;2023-08-12T07:06:48;99477.75;;;39.70;23.69
51239;BME280;38154;47.548;18.828;2023-08-12T07:09:14;99475.19;;;39.09;24.82
51239;BME280;38154;47.548;18.828;2023-08-12T07:11:40;99480.88;;;40.49;22.25
51239;BME280;38154;47.548;18.828;2023-08-12T07:14:06;99473.34;;;40.35;22.17
51239;BME280;38154;47.548;18.828;2023-08-12T07:16:32;99487.50;;;39.73;22.81
51239;BME280;38154;47.548;18.828;2023-08-12T07:18:58;99477.47;;;39.22;24.26
51239;BME280;38154;47.548;18.828;2023-08-12T07:21:24;99481.03;;;39.23;23.68
51239;BME280;38154;47.548;18.828;2023-08-12T07:23:50;99480.38;;;40.04;22.95
51239;BME280;38154;47.548;18.828;2023-08-12T07:26:16;99488.50;;;39.72;22.22
51239;BME280;38154;47.548;18.828;2023-08-12T07:28:42;99486.34;;;41.05;22.08
51239;BME280;38154;47.548;18.828;2023-08-12T07:31:08;99489.09;;;40.97;20.97
51239;BME280;38154;47.548;18.828;2023-08-12T07:33:34;99488.69;;;41.16;21.15
51239;BME280;38154;47.548;18.828;2023-08-12T07:36:01;99483.78;;;41.66;20.67
51239;BME280;38154;47.548;18.828;2023-08-12T07:38:27;99482.34;;;41.16;20.70
51239;BME280;38154;47.548;18.828;2023-08-12T07:40:54;99487.91;;;41.00;21.12
51239;BME280;38154;47.548;18.828;2023-08-12T07:43:20;99488.28;;;41.28;20.91
51239;BME280;38154;47.548;18.828;2023-08-12T07:45:50;99487.19;;;40.25;21.62
51239;BME280;38154;47.548;18.828;2023-08-12T07:48:16;99483.25;;;40.19;21.49
51239;BME280;38154;47.548;18.828;2023-08-12T07:50:42;99484.75;;;41.82;19.77
51239;BME280;38154;47.548;18.828;2023-08-12T07:53:08;99484.41;;;41.14;20.95
51239;BME280;38154;47.548;18.828;2023-08-12T07:55:34;99480.88;;;41.91;20.05
51239;BME280;38154;47.548;18.828;2023-08-12T07:58:00;99470.03;;;41.98;19.58
51239;BME280;38154;47.548;18.828;2023-08-12T08:00:26;99488.25;;;41.90;19.99
51239;BME280;38154;47.548;18.828;2023-08-12T08:02:52;99477.69;;;40.77;21.16
51239;BME280;38154;47.548;18.828;2023-08-12T08:05:18;99482.31;;;40.85;20.86
51239;BME280;38154;47.548;18.828;2023-08-12T08:07:44;99470.84;;;40.81;20.95
51239;BME280;38154;47.548;18.828;2023-08-12T08:10:10;99474.63;;;40.72;21.16
51239;BME280;38154;47.548;18.828;2023-08-12T08:12:36;99478.00;;;42.07;19.51
51239;BME280;38154;47.548;18.828;2023-08-12T08:15:02;99476.88;;;41.79;19.60
51239;BME280;38154;47.548;18.828;2023-08-12T08:17:28;99477.25;;;41.76;19.89
51239;BME280;38154;47.548;18.828;2023-08-12T08:19:54;99478.91;;;42.61;19.85
51239;BME280;38154;47.548;18.828;2023-08-12T08:22:20;99475.16;;;42.24;19.64
51239;BME280;38154;47.548;18.828;2023-08-12T08:24:46;99474.75;;;42.12;19.83
51239;BME280;38154;47.548;18.828;2023-08-12T08:27:12;99478.53;;;42.26;19.64
51239;BME280;38154;47.548;18.828;2023-08-12T08:29:39;99476.00;;;42.01;19.82
51239;BME280;38154;47.548;18.828;2023-08-12T08:32:05;99479.03;;;41.60;19.83
51239;BME280;38154;47.548;18.828;2023-08-12T08:34:31;99471.94;;;40.55;20.68
51239;BME280;38154;47.548;18.828;2023-08-12T08:36:57;99473.50;;;41.45;20.81
51239;BME280;38154;47.548;18.828;2023-08-12T08:39:22;99472.69;;;41.37;19.82
51239;BME280;38154;47.548;18.828;2023-08-12T08:41:48;99471.28;;;40.37;20.72
51239;BME280;38154;47.548;18.828;2023-08-12T08:44:15;99464.44;;;39.83;21.55
51239;BME280;38154;47.548;18.828;2023-08-12T08:46:41;99461.75;;;38.73;23.31
51239;BME280;38154;47.548;18.828;2023-08-12T08:49:08;99462.06;;;40.30;21.81
51239;BME280;38154;47.548;18.828;2023-08-12T08:51:34;99461.94;;;40.79;20.83
51239;BME280;38154;47.548;18.828;2023-08-12T08:54:02;99466.16;;;40.50;21.90
51239;BME280;38154;47.548;18.828;2023-08-12T08:56:31;99470.34;;;40.86;21.16
51239;BME280;38154;47.548;18.828;2023-08-12T08:58:58;99464.62;;;41.04;21.48
51239;BME280;38154;47.548;18.828;2023-08-12T09:01:25;99471.12;;;42.12;19.48
51239;BME280;38154;47.548;18.828;2023-08-12T09:03:52;99466.41;;;40.88;20.53
51239;BME280;38154;47.548;18.828;2023-08-12T09:06:24;99463.47;;;42.07;18.73
51239;BME280;38154;47.548;18.828;2023-08-12T09:08:54;99470.09;;;42.95;17.60
51239;BME280;38154;47.548;18.828;2023-08-12T09:11:20;99471.06;;;42.20;18.61
51239;BME280;38154;47.548;18.828;2023-08-12T09:13:47;99465.78;;;42.33;18.39
51239;BME280;38154;47.548;18.828;2023-08-12T09:16:13;99465.16;;;41.39;17.79
51239;BME280;38154;47.548;18.828;2023-08-12T09:18:40;99459.81;;;41.06;19.16
51239;BME280;38154;47.548;18.828;2023-08-12T09:21:08;99466.44;;;40.72;20.16
51239;BME280;38154;47.548;18.828;2023-08-12T09:23:38;99455.22;;;41.06;19.71
51239;BME280;38154;47.548;18.828;2023-08-12T09:26:13;99446.97;;;41.46;18.54
51239;BME280;38154;47.548;18.828;2023-08-12T09:28:41;99451.47;;;40.51;18.86
51239;BME280;38154;47.548;18.828;2023-08-12T09:31:08;99443.91;;;41.72;19.11
51239;BME280;38154;47.548;18.828;2023-08-12T09:33:38;99460.09;;;42.20;17.31
51239;BME280;38154;47.548;18.828;2023-08-12T09:36:04;99448.78;;;41.30;19.55
51239;BME280;38154;47.548;18.828;2023-08-12T09:38:30;99450.94;;;41.43;18.93
51239;BME280;38154;47.548;18.828;2023-08-12T09:40:56;99446.59;;;41.49;19.62
51239;BME280;38154;47.548;18.828;2023-08-12T09:43:27;99445.19;;;41.53;19.36
51239;BME280;38154;47.548;18.828;2023-08-12T09:45:56;99452.56;;;40.90;20.89
51239;BME280;38154;47.548;18.828;2023-08-12T09:48:23;99443.47;;;40.17;20.38
51239;BME280;38154;47.548;18.828;2023-08-12T09:50:49;99440.91;;;39.74;20.62
51239;BME280;38154;47.548;18.828;2023-08-12T09:53:16;99438.59;;;39.20;21.27
51239;BME280;38154;47.548;18.828;2023-08-12T09:55:43;99438.50;;;39.71;21.51
51239;BME280;38154;47.548;18.828;2023-08-12T09:58:12;99435.59;;;40.22;19.65
51239;BME280;38154;47.548;18.828;2023-08-12T10:00:42;99433.06;;;39.79;20.56
51239;BME280;38154;47.548;18.828;2023-08-12T10:03:10;99423.00;;;38.62;23.34
51239;BME280;38154;47.548;18.828;2023-08-12T10:05:37;99426.91;;;39.02;21.04
51239;BME280;38154;47.548;18.828;2023-08-12T10:08:04;99432.31;;;40.99;19.51
51239;BME280;38154;47.548;18.828;2023-08-12T10:10:33;99427.84;;;39.19;21.50
51239;BME280;38154;47.548;18.828;2023-08-12T10:13:00;99422.00;;;38.71;22.46
51239;BME280;38154;47.548;18.828;2023-08-12T10:15:27;99413.38;;;36.59;25.96
51239;BME280;38154;47.548;18.828;2023-08-12T10:17:53;99408.00;;;37.05;25.17
51239;BME280;38154;47.548;18.828;2023-08-12T10:20:24;99408.13;;;38.03;23.73
51239;BME280;38154;47.548;18.828;2023-08-12T10:22:51;99407.84;;;37.89;24.29
51239;BME280;38154;47.548;18.828;2023-08-12T10:25:20;99405.41;;;38.90;22.33
51239;BME280;38154;47.548;18.828;2023-08-12T10:27:49;99408.75;;;39.27;21.59
51239;BME280;38154;47.548;18.828;2023-08-12T10:30:15;99406.47;;;38.11;23.58
51239;BME280;38154;47.548;18.828;2023-08-12T10:32:42;99411.47;;;39.35;22.29
51239;BME280;38154;47.548;18.828;2023-08-12T10:35:08;99406.78;;;40.03;21.61
51239;BME280;38154;47.548;18.828;2023-08-12T10:37:34;99408.25;;;40.47;19.89
51239;BME280;38154;47.548;18.828;2023-08-12T10:40:04;99418.38;;;41.25;19.64
51239;BME280;38154;47.548;18.828;2023-08-12T10:42:43;99404.56;;;40.71;19.80
51239;BME280;38154;47.548;18.828;2023-08-12T10:45:10;99398.75;;;39.85;20.75
51239;BME280;38154;47.548;18.828;2023-08-12T10:48:10;99405.59;;;39.73;20.16
51239;BME280;38154;47.548;18.828;2023-08-12T10:50:44;99400.56;;;40.34;20.02
51239;BME280;38154;47.548;18.828;2023-08-12T10:53:23;99398.25;;;40.14;20.64
51239;BME280;38154;47.548;18.828;2023-08-12T10:55:53;99396.38;;;40.62;19.06
51239;BME280;38154;47.548;18.828;2023-08-12T10:58:28;99394.31;;;39.59;21.29
51239;BME280;38154;47.548;18.828;2023-08-12T11:00:56;99385.41;;;35.63;26.01
51239;BME280;38154;47.548;18.828;2023-08-12T11:03:23;99382.63;;;33.49;27.83
51239;BME280;38154;47.548;18.828;2023-08-12T11:05:49;99374.09;;;32.43;28.90
51239;BME280;38154;47.548;18.828;2023-08-12T11:08:16;99365.22;;;32.41;29.78
51239;BME280;38154;47.548;18.828;2023-08-12T11:10:42;99370.97;;;34.11;26.65
51239;BME280;38154;47.548;18.828;2023-08-12T11:13:09;99372.44;;;35.57;26.13
51239;BME280;38154;47.548;18.828;2023-08-12T11:15:40;99371.00;;;37.40;23.60
51239;BME280;38154;47.548;18.828;2023-08-12T11:18:16;99370.03;;;37.85;23.56
51239;BME280;38154;47.548;18.828;2023-08-12T11:20:43;99360.59;;;35.38;25.45
51239;BME280;38154;47.548;18.828;2023-08-12T11:23:09;99355.72;;;34.10;28.03
51239;BME280;38154;47.548;18.828;2023-08-12T11:25:37;99346.06;;;32.89;29.58
51239;BME280;38154;47.548;18.828;2023-08-12T11:28:04;99344.75;;;32.50;30.26
51239;BME280;38154;47.548;18.828;2023-08-12T11:30:31;99340.22;;;32.39;29.94
51239;BME280;38154;47.548;18.828;2023-08-12T11:32:58;99334.97;;;32.26;30.50
51239;BME280;38154;47.548;18.828;2023-08-12T11:35:24;99336.06;;;32.46;30.49
51239;BME280;38154;47.548;18.828;2023-08-12T11:37:53;99345.19;;;33.86;28.24
51239;BME280;38154;47.548;18.828;2023-08-12T11:40:21;99344.16;;;34.70;27.34
51239;BME280;38154;47.548;18.828;2023-08-12T11:42:48;99336.31;;;35.46;27.43
51239;BME280;38154;47.548;18.828;2023-08-12T11:45:20;99333.72;;;36.31;25.93
51239;BME280;38154;47.548;18.828;2023-08-12T11:47:46;99339.94;;;36.79;24.55
51239;BME280;38154;47.548;18.828;2023-08-12T11:50:26;99349.22;;;37.22;25.27
51239;BME280;38154;47.548;18.828;2023-08-12T11:52:53;99347.56;;;37.83;23.06
51239;BME280;38154;47.548;18.828;2023-08-12T11:55:20;99343.16;;;37.64;22.10
51239;BME280;38154;47.548;18.828;2023-08-12T11:57:46;99337.50;;;36.48;23.47
51239;BME280;38154;47.548;18.828;2023-08-12T12:00:13;99328.28;;;35.64;24.20
51239;BME280;38154;47.548;18.828;2023-08-12T12:02:41;99326.22;;;36.06;25.86
51239;BME280;38154;47.548;18.828;2023-08-12T12:05:11;99326.50;;;36.22;26.33
51239;BME280;38154;47.548;18.828;2023-08-12T12:07:37;99322.47;;;33.98;28.55
51239;BME280;38154;47.548;18.828;2023-08-12T12:10:04;99313.84;;;33.62;29.57
51239;BME280;38154;47.548;18.828;2023-08-12T12:12:34;99315.56;;;34.15;28.76
51239;BME280;38154;47.548;18.828;2023-08-12T12:15:01;99306.31;;;33.24;30.08
51239;BME280;38154;47.548;18.828;2023-08-12T12:17:27;99308.84;;;31.69;31.52
51239;BME280;38154;47.548;18.828;2023-08-12T12:19:57;99295.94;;;31.14;32.76
51239;BME280;38154;47.548;18.828;2023-08-12T12:22:31;99298.84;;;31.47;31.54
51239;BME280;38154;47.548;18.828;2023-08-12T12:25:06;99292.13;;;31.17;30.97
51239;BME280;38154;47.548;18.828;2023-08-12T12:27:32;99288.53;;;30.31;35.15
51239;BME280;38154;47.548;18.828;2023-08-12T12:30:01;99287.25;;;30.37;34.97
51239;BME280;38154;47.548;18.828;2023-08-12T12:32:27;99280.47;;;30.31;35.66
51239;BME280;38154;47.548;18.828;2023-08-12T12:34:53;99284.59;;;30.74;36.52
51239;BME280;38154;47.548;18.828;2023-08-12T12:37:20;99284.53;;;31.11;32.45
51239;BME280;38154;47.548;18.828;2023-08-12T12:39:46;99283.31;;;30.91;32.35
51239;BME280;38154;47.548;18.828;2023-08-12T12:42:12;99277.13;;;30.77;33.93
51239;BME280;38154;47.548;18.828;2023-08-12T12:44:39;99276.91;;;30.80;32.94